Check out our new BloomSky Weather System.

Active alerts

Houston, TX
  Details for Houston, TX Special Weather Statement
Galveston, TX
  Details for Galveston, TX Special Weather Statement


Thunder radar  blitzortung!


Rain radar more information rain snow radar


Visit our other weather sites:

Template documentation
and downloads

And another site



Weather Underground History page Text

Daily Summary for January 3, 2018 Units:  Both    English   Metric
« Previous Day
Next Day »
Daily Weekly Monthly Yearly Custom
  High: Low: Average:
Temperature: TemperatureF °F /  -17.8 °C 23.7 °F /  -4.6 °C 33 °F /  0.6 °C
Dew Point: DewpointF °F /  -17.8 °C 13.6 °F /  -10.2 °C 18.5 °F /  -7.5 °C
Humidity: Humidity % 32 % 57 %
Wind Speed: WindSpeedMPH mph /  0 km/h - 1.8 mph /  2.9 km/h
Wind Gust: WindSpeedGustMPH mph /  0 km/h - -
Wind:- - WNW
Pressure: PressureIn in /  0 hPa 30.32 in /  1026.6 hPa -
Precipitation: 0.00 in /  0 mm    
Historical Graphs
 
 
Tabular Data for January 3, 2018
Time Temperature Dew Point Pressure Wind Wind Speed Wind Gust Humidity Rainfall Rate (Hourly)
TemperatureF °F /  -17.8 °C DewpointF °F /  -17.8 °C PressureIn in /  0 hPa Calm     Humidity % HourlyPrecipIn in /  0 mm
00:02 28.9 °F /  -1.7 °C 19.8 °F /  -6.8 °C 30.50 in /  1032.7 hPa NW 3.0 mph /  4.8 km/h 9.0 mph /  14.5 km/h 68 % 0.00 in /  0 mm
00:05 28.9 °F /  -1.7 °C 19.4 °F /  -7 °C 30.49 in /  1032.4 hPa NW 5.0 mph /  8 km/h 9.0 mph /  14.5 km/h 67 % 0.00 in /  0 mm
00:08 28.9 °F /  -1.7 °C 19.4 °F /  -7 °C 30.50 in /  1032.7 hPa NNW 6.0 mph /  9.7 km/h 9.0 mph /  14.5 km/h 67 % 0.00 in /  0 mm
00:10 28.9 °F /  -1.7 °C 19.4 °F /  -7 °C 30.49 in /  1032.4 hPa NNW 3.0 mph /  4.8 km/h 8.0 mph /  12.9 km/h 67 % 0.00 in /  0 mm
00:15 28.9 °F /  -1.7 °C 19.0 °F /  -7.2 °C 30.49 in /  1032.4 hPa NW 4.0 mph /  6.4 km/h 9.0 mph /  14.5 km/h 66 % 0.00 in /  0 mm
00:20 28.9 °F /  -1.7 °C 19.0 °F /  -7.2 °C 30.48 in /  1032.1 hPa North 4.0 mph /  6.4 km/h 9.0 mph /  14.5 km/h 66 % 0.00 in /  0 mm
00:22 28.9 °F /  -1.7 °C 19.0 °F /  -7.2 °C 30.49 in /  1032.4 hPa NW 3.0 mph /  4.8 km/h 9.0 mph /  14.5 km/h 66 % 0.00 in /  0 mm
00:23 28.8 °F /  -1.8 °C 18.9 °F /  -7.3 °C 30.49 in /  1032.4 hPa NW 5.0 mph /  8 km/h 9.0 mph /  14.5 km/h 66 % 0.00 in /  0 mm
00:29 28.8 °F /  -1.8 °C 18.9 °F /  -7.3 °C 30.48 in /  1032.1 hPa NNW 4.0 mph /  6.4 km/h 9.0 mph /  14.5 km/h 66 % 0.00 in /  0 mm
00:32 28.8 °F /  -1.8 °C 18.9 °F /  -7.3 °C 30.48 in /  1032.1 hPa NW 3.0 mph /  4.8 km/h 9.0 mph /  14.5 km/h 66 % 0.00 in /  0 mm
00:35 28.8 °F /  -1.8 °C 18.9 °F /  -7.3 °C 30.49 in /  1032.4 hPa NNE 3.0 mph /  4.8 km/h 8.0 mph /  12.9 km/h 66 % 0.00 in /  0 mm
00:44 28.9 °F /  -1.7 °C 18.0 °F /  -7.8 °C 30.48 in /  1032.1 hPa NNW 5.0 mph /  8 km/h 9.0 mph /  14.5 km/h 63 % 0.00 in /  0 mm
00:45 28.9 °F /  -1.7 °C 18.0 °F /  -7.8 °C 30.48 in /  1032.1 hPa NW 2.0 mph /  3.2 km/h 9.0 mph /  14.5 km/h 63 % 0.00 in /  0 mm
00:50 28.9 °F /  -1.7 °C 17.6 °F /  -8 °C 30.48 in /  1032.1 hPa NW 2.0 mph /  3.2 km/h 9.0 mph /  14.5 km/h 62 % 0.00 in /  0 mm
00:53 28.9 °F /  -1.7 °C 17.6 °F /  -8 °C 30.48 in /  1032.1 hPa North 5.0 mph /  8 km/h 9.0 mph /  14.5 km/h 62 % 0.00 in /  0 mm
00:58 28.9 °F /  -1.7 °C 17.6 °F /  -8 °C 30.48 in /  1032.1 hPa NNW 1.0 mph /  1.6 km/h 9.0 mph /  14.5 km/h 62 % 0.00 in /  0 mm
01:03 28.9 °F /  -1.7 °C 17.6 °F /  -8 °C 30.48 in /  1032.1 hPa WNW 1.0 mph /  1.6 km/h 9.0 mph /  14.5 km/h 62 % 0.00 in /  0 mm
01:04 28.9 °F /  -1.7 °C 17.6 °F /  -8 °C 30.48 in /  1032.1 hPa NW 3.0 mph /  4.8 km/h 9.0 mph /  14.5 km/h 62 % 0.00 in /  0 mm
01:08 28.9 °F /  -1.7 °C 17.2 °F /  -8.2 °C 30.48 in /  1032.1 hPa WNW 1.0 mph /  1.6 km/h 9.0 mph /  14.5 km/h 61 % 0.00 in /  0 mm
01:10 28.9 °F /  -1.7 °C 17.6 °F /  -8 °C 30.48 in /  1032.1 hPa NW 3.0 mph /  4.8 km/h 9.0 mph /  14.5 km/h 62 % 0.00 in /  0 mm
01:15 28.8 °F /  -1.8 °C 17.1 °F /  -8.3 °C 30.48 in /  1032.1 hPa NNW 3.0 mph /  4.8 km/h 9.0 mph /  14.5 km/h 61 % 0.00 in /  0 mm
01:19 28.8 °F /  -1.8 °C 16.7 °F /  -8.5 °C 30.48 in /  1032.1 hPa NNW 3.0 mph /  4.8 km/h 9.0 mph /  14.5 km/h 60 % 0.00 in /  0 mm
01:22 28.8 °F /  -1.8 °C 16.2 °F /  -8.8 °C 30.47 in /  1031.7 hPa NW 4.0 mph /  6.4 km/h 7.0 mph /  11.3 km/h 59 % 0.00 in /  0 mm
01:27 28.8 °F /  -1.8 °C 16.7 °F /  -8.5 °C 30.47 in /  1031.7 hPa North 2.0 mph /  3.2 km/h 7.0 mph /  11.3 km/h 60 % 0.00 in /  0 mm
01:28 28.8 °F /  -1.8 °C 16.7 °F /  -8.5 °C 30.47 in /  1031.7 hPa NW 2.0 mph /  3.2 km/h 7.0 mph /  11.3 km/h 60 % 0.00 in /  0 mm
01:33 28.6 °F /  -1.9 °C 16.5 °F /  -8.6 °C 30.47 in /  1031.7 hPa NW 1.0 mph /  1.6 km/h 6.0 mph /  9.7 km/h 60 % 0.00 in /  0 mm
01:35 28.6 °F /  -1.9 °C 16.5 °F /  -8.6 °C 30.47 in /  1031.7 hPa NNW 4.0 mph /  6.4 km/h 6.0 mph /  9.7 km/h 60 % 0.00 in /  0 mm
01:40 28.4 °F /  -2 °C 16.3 °F /  -8.7 °C 30.48 in /  1032.1 hPa NW 2.0 mph /  3.2 km/h 5.0 mph /  8 km/h 60 % 0.00 in /  0 mm
01:41 28.4 °F /  -2 °C 16.3 °F /  -8.7 °C 30.47 in /  1031.7 hPa Calm   5.0 mph /  8 km/h 60 % 0.00 in /  0 mm
01:42 28.2 °F /  -2.1 °C 16.2 °F /  -8.8 °C 30.47 in /  1031.7 hPa NNW 1.0 mph /  1.6 km/h 5.0 mph /  8 km/h 60 % 0.00 in /  0 mm
01:47 28.2 °F /  -2.1 °C 15.8 °F /  -9 °C 30.48 in /  1032.1 hPa NNW 2.0 mph /  3.2 km/h 11.0 mph /  17.7 km/h 59 % 0.00 in /  0 mm
01:52 28.0 °F /  -2.2 °C 15.6 °F /  -9.1 °C 30.48 in /  1032.1 hPa NNW 3.0 mph /  4.8 km/h 11.0 mph /  17.7 km/h 59 % 0.00 in /  0 mm
01:53 28.0 °F /  -2.2 °C 15.6 °F /  -9.1 °C 30.48 in /  1032.1 hPa North 2.0 mph /  3.2 km/h 11.0 mph /  17.7 km/h 59 % 0.00 in /  0 mm
01:57 28.0 °F /  -2.2 °C 15.6 °F /  -9.1 °C 30.48 in /  1032.1 hPa WNW 1.0 mph /  1.6 km/h 11.0 mph /  17.7 km/h 59 % 0.00 in /  0 mm
02:00 27.9 °F /  -2.3 °C 15.4 °F /  -9.2 °C 30.47 in /  1031.7 hPa NNW 3.0 mph /  4.8 km/h 6.0 mph /  9.7 km/h 59 % 0.00 in /  0 mm
02:05 27.9 °F /  -2.3 °C 15.4 °F /  -9.2 °C 30.48 in /  1032.1 hPa West 2.0 mph /  3.2 km/h 5.0 mph /  8 km/h 59 % 0.00 in /  0 mm
02:06 27.9 °F /  -2.3 °C 15.4 °F /  -9.2 °C 30.48 in /  1032.1 hPa Calm   5.0 mph /  8 km/h 59 % 0.00 in /  0 mm
02:08 27.7 °F /  -2.4 °C 15.3 °F /  -9.3 °C 30.47 in /  1031.7 hPa NW 3.0 mph /  4.8 km/h 5.0 mph /  8 km/h 59 % 0.00 in /  0 mm
02:13 27.7 °F /  -2.4 °C 15.3 °F /  -9.3 °C 30.47 in /  1031.7 hPa Calm   5.0 mph /  8 km/h 59 % 0.00 in /  0 mm
02:14 27.7 °F /  -2.4 °C 15.3 °F /  -9.3 °C 30.47 in /  1031.7 hPa North 2.0 mph /  3.2 km/h 5.0 mph /  8 km/h 59 % 0.00 in /  0 mm
02:19 27.5 °F /  -2.5 °C 14.7 °F /  -9.6 °C 30.47 in /  1031.7 hPa SW 3.0 mph /  4.8 km/h 5.0 mph /  8 km/h 58 % 0.00 in /  0 mm
02:20 27.5 °F /  -2.5 °C 14.7 °F /  -9.6 °C 30.47 in /  1031.7 hPa NNW 2.0 mph /  3.2 km/h 8.0 mph /  12.9 km/h 58 % 0.00 in /  0 mm
02:25 27.3 °F /  -2.6 °C 14.9 °F /  -9.5 °C 30.47 in /  1031.7 hPa NW 5.0 mph /  8 km/h 8.0 mph /  12.9 km/h 59 % 0.00 in /  0 mm
02:27 27.3 °F /  -2.6 °C 14.9 °F /  -9.5 °C 30.47 in /  1031.7 hPa NW 1.0 mph /  1.6 km/h 8.0 mph /  12.9 km/h 59 % 0.00 in /  0 mm
02:32 27.3 °F /  -2.6 °C 14.9 °F /  -9.5 °C 30.47 in /  1031.7 hPa NW 6.0 mph /  9.7 km/h 8.0 mph /  12.9 km/h 59 % 0.00 in /  0 mm
02:33 27.3 °F /  -2.6 °C 14.9 °F /  -9.5 °C 30.47 in /  1031.7 hPa NNW 1.0 mph /  1.6 km/h 8.0 mph /  12.9 km/h 59 % 0.00 in /  0 mm
02:38 27.3 °F /  -2.6 °C 14.9 °F /  -9.5 °C 30.47 in /  1031.7 hPa NNW 3.0 mph /  4.8 km/h 9.0 mph /  14.5 km/h 59 % 0.00 in /  0 mm
02:40 27.1 °F /  -2.7 °C 14.7 °F /  -9.6 °C 30.46 in /  1031.4 hPa North 3.0 mph /  4.8 km/h 9.0 mph /  14.5 km/h 59 % 0.00 in /  0 mm
02:44 27.1 °F /  -2.7 °C 14.7 °F /  -9.6 °C 30.46 in /  1031.4 hPa NNW 3.0 mph /  4.8 km/h 9.0 mph /  14.5 km/h 59 % 0.00 in /  0 mm
02:45 27.1 °F /  -2.7 °C 14.7 °F /  -9.6 °C 30.46 in /  1031.4 hPa NW 2.0 mph /  3.2 km/h 9.0 mph /  14.5 km/h 59 % 0.00 in /  0 mm
02:50 27.0 °F /  -2.8 °C 14.9 °F /  -9.5 °C 30.46 in /  1031.4 hPa NW 1.0 mph /  1.6 km/h 9.0 mph /  14.5 km/h 60 % 0.00 in /  0 mm
02:54 27.0 °F /  -2.8 °C 14.9 °F /  -9.5 °C 30.46 in /  1031.4 hPa NW 2.0 mph /  3.2 km/h 9.0 mph /  14.5 km/h 60 % 0.00 in /  0 mm
02:56 26.8 °F /  -2.9 °C 14.7 °F /  -9.6 °C 30.46 in /  1031.4 hPa NNW 2.0 mph /  3.2 km/h 6.0 mph /  9.7 km/h 60 % 0.00 in /  0 mm
02:59 26.8 °F /  -2.9 °C 14.7 °F /  -9.6 °C 30.46 in /  1031.4 hPa NW 5.0 mph /  8 km/h 6.0 mph /  9.7 km/h 60 % 0.00 in /  0 mm
03:04 26.8 °F /  -2.9 °C 14.7 °F /  -9.6 °C 30.46 in /  1031.4 hPa NNW 1.0 mph /  1.6 km/h 7.0 mph /  11.3 km/h 60 % 0.00 in /  0 mm
03:07 26.8 °F /  -2.9 °C 15.1 °F /  -9.4 °C 30.46 in /  1031.4 hPa NNW 1.0 mph /  1.6 km/h 7.0 mph /  11.3 km/h 61 % 0.00 in /  0 mm
03:12 26.6 °F /  -3 °C 14.9 °F /  -9.5 °C 30.46 in /  1031.4 hPa North 2.0 mph /  3.2 km/h 7.0 mph /  11.3 km/h 61 % 0.00 in /  0 mm
03:14 26.4 °F /  -3.1 °C 14.7 °F /  -9.6 °C 30.46 in /  1031.4 hPa Calm   7.0 mph /  11.3 km/h 61 % 0.00 in /  0 mm
03:16 26.4 °F /  -3.1 °C 14.7 °F /  -9.6 °C 30.46 in /  1031.4 hPa NNW 1.0 mph /  1.6 km/h 5.0 mph /  8 km/h 61 % 0.00 in /  0 mm
03:21 26.4 °F /  -3.1 °C 14.7 °F /  -9.6 °C 30.45 in /  1031 hPa North 4.0 mph /  6.4 km/h 4.0 mph /  6.4 km/h 61 % 0.00 in /  0 mm
03:26 26.2 °F /  -3.2 °C 15.1 °F /  -9.4 °C 30.46 in /  1031.4 hPa NW 2.0 mph /  3.2 km/h 8.0 mph /  12.9 km/h 62 % 0.00 in /  0 mm
03:28 26.2 °F /  -3.2 °C 15.1 °F /  -9.4 °C 30.46 in /  1031.4 hPa Calm   8.0 mph /  12.9 km/h 62 % 0.00 in /  0 mm
03:31 26.2 °F /  -3.2 °C 15.1 °F /  -9.4 °C 30.45 in /  1031 hPa NNW 3.0 mph /  4.8 km/h 8.0 mph /  12.9 km/h 62 % 0.00 in /  0 mm
03:36 26.1 °F /  -3.3 °C 14.9 °F /  -9.5 °C 30.45 in /  1031 hPa NW 1.0 mph /  1.6 km/h 8.0 mph /  12.9 km/h 62 % 0.00 in /  0 mm
03:37 26.1 °F /  -3.3 °C 14.9 °F /  -9.5 °C 30.45 in /  1031 hPa Calm   8.0 mph /  12.9 km/h 62 % 0.00 in /  0 mm
03:40 26.1 °F /  -3.3 °C 14.9 °F /  -9.5 °C 30.45 in /  1031 hPa Calm   5.0 mph /  8 km/h 62 % 0.00 in /  0 mm
03:45 25.9 °F /  -3.4 °C 15.1 °F /  -9.4 °C 30.45 in /  1031 hPa NW 1.0 mph /  1.6 km/h 4.0 mph /  6.4 km/h 63 % 0.00 in /  0 mm
03:46 25.9 °F /  -3.4 °C 15.1 °F /  -9.4 °C 30.46 in /  1031.4 hPa Calm   4.0 mph /  6.4 km/h 63 % 0.00 in /  0 mm
03:51 25.9 °F /  -3.4 °C 15.1 °F /  -9.4 °C 30.45 in /  1031 hPa Calm   3.0 mph /  4.8 km/h 63 % 0.00 in /  0 mm
03:54 25.7 °F /  -3.5 °C 14.9 °F /  -9.5 °C 30.45 in /  1031 hPa NNW 1.0 mph /  1.6 km/h 3.0 mph /  4.8 km/h 63 % 0.00 in /  0 mm
03:59 25.7 °F /  -3.5 °C 14.9 °F /  -9.5 °C 30.45 in /  1031 hPa NNW 1.0 mph /  1.6 km/h 4.0 mph /  6.4 km/h 63 % 0.00 in /  0 mm
04:04 25.7 °F /  -3.5 °C 14.9 °F /  -9.5 °C 30.46 in /  1031.4 hPa NW 2.0 mph /  3.2 km/h 4.0 mph /  6.4 km/h 63 % 0.00 in /  0 mm
04:06 25.5 °F /  -3.6 °C 14.7 °F /  -9.6 °C 30.46 in /  1031.4 hPa NNW 5.0 mph /  8 km/h 5.0 mph /  8 km/h 63 % 0.00 in /  0 mm
04:11 25.5 °F /  -3.6 °C 14.7 °F /  -9.6 °C 30.46 in /  1031.4 hPa NNW 4.0 mph /  6.4 km/h 5.0 mph /  8 km/h 63 % 0.00 in /  0 mm
04:12 25.5 °F /  -3.6 °C 14.7 °F /  -9.6 °C 30.46 in /  1031.4 hPa WNW 3.0 mph /  4.8 km/h 5.0 mph /  8 km/h 63 % 0.00 in /  0 mm
04:13 25.7 °F /  -3.5 °C 14.9 °F /  -9.5 °C 30.46 in /  1031.4 hPa NNW 1.0 mph /  1.6 km/h 5.0 mph /  8 km/h 63 % 0.00 in /  0 mm
04:18 25.7 °F /  -3.5 °C 14.5 °F /  -9.7 °C 30.46 in /  1031.4 hPa NNW 1.0 mph /  1.6 km/h 10.0 mph /  16.1 km/h 62 % 0.00 in /  0 mm
04:19 25.7 °F /  -3.5 °C 14.5 °F /  -9.7 °C 30.46 in /  1031.4 hPa NNW 2.0 mph /  3.2 km/h 10.0 mph /  16.1 km/h 62 % 0.00 in /  0 mm
04:23 25.7 °F /  -3.5 °C 14.9 °F /  -9.5 °C 30.46 in /  1031.4 hPa NW 6.0 mph /  9.7 km/h 10.0 mph /  16.1 km/h 63 % 0.00 in /  0 mm
04:26 25.7 °F /  -3.5 °C 14.9 °F /  -9.5 °C 30.46 in /  1031.4 hPa NW 1.0 mph /  1.6 km/h 10.0 mph /  16.1 km/h 63 % 0.00 in /  0 mm
04:31 25.5 °F /  -3.6 °C 14.7 °F /  -9.6 °C 30.46 in /  1031.4 hPa NW 1.0 mph /  1.6 km/h 6.0 mph /  9.7 km/h 63 % 0.00 in /  0 mm
04:32 25.5 °F /  -3.6 °C 14.7 °F /  -9.6 °C 30.46 in /  1031.4 hPa NW 1.0 mph /  1.6 km/h 6.0 mph /  9.7 km/h 63 % 0.00 in /  0 mm
04:37 25.3 °F /  -3.7 °C 14.9 °F /  -9.5 °C 30.46 in /  1031.4 hPa West 1.0 mph /  1.6 km/h 6.0 mph /  9.7 km/h 64 % 0.00 in /  0 mm
04:42 25.2 °F /  -3.8 °C 15.1 °F /  -9.4 °C 30.46 in /  1031.4 hPa Calm   4.0 mph /  6.4 km/h 65 % 0.00 in /  0 mm
04:44 25.2 °F /  -3.8 °C 15.1 °F /  -9.4 °C 30.46 in /  1031.4 hPa West 1.0 mph /  1.6 km/h 4.0 mph /  6.4 km/h 65 % 0.00 in /  0 mm
04:49 25.0 °F /  -3.9 °C 15.3 °F /  -9.3 °C 30.46 in /  1031.4 hPa NW 1.0 mph /  1.6 km/h 4.0 mph /  6.4 km/h 66 % 0.00 in /  0 mm
04:50 25.0 °F /  -3.9 °C 15.3 °F /  -9.3 °C 30.46 in /  1031.4 hPa NNW 4.0 mph /  6.4 km/h 4.0 mph /  6.4 km/h 66 % 0.00 in /  0 mm
04:55 25.0 °F /  -3.9 °C 15.3 °F /  -9.3 °C 30.46 in /  1031.4 hPa NW 1.0 mph /  1.6 km/h 4.0 mph /  6.4 km/h 66 % 0.00 in /  0 mm
04:56 25.0 °F /  -3.9 °C 15.3 °F /  -9.3 °C 30.46 in /  1031.4 hPa NNW 3.0 mph /  4.8 km/h 4.0 mph /  6.4 km/h 66 % 0.00 in /  0 mm
05:01 25.0 °F /  -3.9 °C 15.3 °F /  -9.3 °C 30.46 in /  1031.4 hPa NNW 1.0 mph /  1.6 km/h 4.0 mph /  6.4 km/h 66 % 0.00 in /  0 mm
05:06 25.0 °F /  -3.9 °C 15.3 °F /  -9.3 °C 30.46 in /  1031.4 hPa NNW 5.0 mph /  8 km/h 5.0 mph /  8 km/h 66 % 0.00 in /  0 mm
05:07 24.8 °F /  -4 °C 15.1 °F /  -9.4 °C 30.46 in /  1031.4 hPa NNW 2.0 mph /  3.2 km/h 4.0 mph /  6.4 km/h 66 % 0.00 in /  0 mm
05:12 25.0 °F /  -3.9 °C 14.9 °F /  -9.5 °C 30.46 in /  1031.4 hPa Calm   7.0 mph /  11.3 km/h 65 % 0.00 in /  0 mm
05:13 25.0 °F /  -3.9 °C 14.9 °F /  -9.5 °C 30.46 in /  1031.4 hPa NNW 1.0 mph /  1.6 km/h 7.0 mph /  11.3 km/h 65 % 0.00 in /  0 mm
05:18 24.8 °F /  -4 °C 14.7 °F /  -9.6 °C 30.46 in /  1031.4 hPa NW 3.0 mph /  4.8 km/h 7.0 mph /  11.3 km/h 65 % 0.00 in /  0 mm
05:19 24.8 °F /  -4 °C 14.7 °F /  -9.6 °C 30.47 in /  1031.7 hPa NNW 1.0 mph /  1.6 km/h 7.0 mph /  11.3 km/h 65 % 0.00 in /  0 mm
05:24 25.0 °F /  -3.9 °C 14.9 °F /  -9.5 °C 30.47 in /  1031.7 hPa NNW 2.0 mph /  3.2 km/h 7.0 mph /  11.3 km/h 65 % 0.00 in /  0 mm
05:25 25.0 °F /  -3.9 °C 14.9 °F /  -9.5 °C 30.47 in /  1031.7 hPa NW 3.0 mph /  4.8 km/h 6.0 mph /  9.7 km/h 65 % 0.00 in /  0 mm
05:31 25.0 °F /  -3.9 °C 14.9 °F /  -9.5 °C 30.47 in /  1031.7 hPa NW 1.0 mph /  1.6 km/h 6.0 mph /  9.7 km/h 65 % 0.00 in /  0 mm
05:36 24.8 °F /  -4 °C 14.7 °F /  -9.6 °C 30.47 in /  1031.7 hPa NNW 3.0 mph /  4.8 km/h 6.0 mph /  9.7 km/h 65 % 0.00 in /  0 mm
05:41 24.6 °F /  -4.1 °C 14.5 °F /  -9.7 °C 30.47 in /  1031.7 hPa NW 1.0 mph /  1.6 km/h 7.0 mph /  11.3 km/h 65 % 0.00 in /  0 mm
05:43 24.6 °F /  -4.1 °C 14.5 °F /  -9.7 °C 30.47 in /  1031.7 hPa NW 4.0 mph /  6.4 km/h 7.0 mph /  11.3 km/h 65 % 0.00 in /  0 mm
05:48 24.6 °F /  -4.1 °C 14.5 °F /  -9.7 °C 30.48 in /  1032.1 hPa NNW 2.0 mph /  3.2 km/h 7.0 mph /  11.3 km/h 65 % 0.00 in /  0 mm
05:51 24.6 °F /  -4.1 °C 14.5 °F /  -9.7 °C 30.48 in /  1032.1 hPa Calm   7.0 mph /  11.3 km/h 65 % 0.00 in /  0 mm
05:55 24.4 °F /  -4.2 °C 14.4 °F /  -9.8 °C 30.48 in /  1032.1 hPa Calm   6.0 mph /  9.7 km/h 65 % 0.00 in /  0 mm
06:00 24.4 °F /  -4.2 °C 14.4 °F /  -9.8 °C 30.48 in /  1032.1 hPa Calm   6.0 mph /  9.7 km/h 65 % 0.00 in /  0 mm
06:03 24.4 °F /  -4.2 °C 14.4 °F /  -9.8 °C 30.48 in /  1032.1 hPa Calm   6.0 mph /  9.7 km/h 65 % 0.00 in /  0 mm
06:08 24.4 °F /  -4.2 °C 14.4 °F /  -9.8 °C 30.48 in /  1032.1 hPa NNW 5.0 mph /  8 km/h 6.0 mph /  9.7 km/h 65 % 0.00 in /  0 mm
06:12 24.4 °F /  -4.2 °C 14.4 °F /  -9.8 °C 30.48 in /  1032.1 hPa NW 2.0 mph /  3.2 km/h 6.0 mph /  9.7 km/h 65 % 0.00 in /  0 mm
06:17 24.4 °F /  -4.2 °C 14.7 °F /  -9.6 °C 30.48 in /  1032.1 hPa NNE 1.0 mph /  1.6 km/h 6.0 mph /  9.7 km/h 66 % 0.00 in /  0 mm
06:18 24.3 °F /  -4.3 °C 14.5 °F /  -9.7 °C 30.48 in /  1032.1 hPa NW 2.0 mph /  3.2 km/h 6.0 mph /  9.7 km/h 66 % 0.00 in /  0 mm
06:23 24.3 °F /  -4.3 °C 14.5 °F /  -9.7 °C 30.48 in /  1032.1 hPa NNW 3.0 mph /  4.8 km/h 6.0 mph /  9.7 km/h 66 % 0.00 in /  0 mm
06:25 24.3 °F /  -4.3 °C 14.5 °F /  -9.7 °C 30.48 in /  1032.1 hPa Calm   7.0 mph /  11.3 km/h 66 % 0.00 in /  0 mm
06:26 24.3 °F /  -4.3 °C 14.5 °F /  -9.7 °C 30.48 in /  1032.1 hPa NNW 1.0 mph /  1.6 km/h 7.0 mph /  11.3 km/h 66 % 0.00 in /  0 mm
06:30 24.3 °F /  -4.3 °C 14.5 °F /  -9.7 °C 30.48 in /  1032.1 hPa NW 4.0 mph /  6.4 km/h 7.0 mph /  11.3 km/h 66 % 0.00 in /  0 mm
06:34 24.3 °F /  -4.3 °C 14.2 °F /  -9.9 °C 30.48 in /  1032.1 hPa NNW 1.0 mph /  1.6 km/h 7.0 mph /  11.3 km/h 65 % 0.00 in /  0 mm
06:39 24.1 °F /  -4.4 °C 14.4 °F /  -9.8 °C 30.48 in /  1032.1 hPa NW 4.0 mph /  6.4 km/h 7.0 mph /  11.3 km/h 66 % 0.00 in /  0 mm
06:44 24.1 °F /  -4.4 °C 14.4 °F /  -9.8 °C 30.48 in /  1032.1 hPa NW 1.0 mph /  1.6 km/h 6.0 mph /  9.7 km/h 66 % 0.00 in /  0 mm
06:45 24.1 °F /  -4.4 °C 14.4 °F /  -9.8 °C 30.48 in /  1032.1 hPa NNW 2.0 mph /  3.2 km/h 6.0 mph /  9.7 km/h 66 % 0.00 in /  0 mm
06:50 24.1 °F /  -4.4 °C 14.4 °F /  -9.8 °C 30.48 in /  1032.1 hPa NW 5.0 mph /  8 km/h 7.0 mph /  11.3 km/h 66 % 0.00 in /  0 mm
06:52 24.1 °F /  -4.4 °C 14.0 °F /  -10 °C 30.48 in /  1032.1 hPa North 3.0 mph /  4.8 km/h 7.0 mph /  11.3 km/h 65 % 0.00 in /  0 mm
06:53 24.1 °F /  -4.4 °C 14.0 °F /  -10 °C 30.48 in /  1032.1 hPa NW 1.0 mph /  1.6 km/h 7.0 mph /  11.3 km/h 65 % 0.00 in /  0 mm
06:58 24.1 °F /  -4.4 °C 14.0 °F /  -10 °C 30.48 in /  1032.1 hPa NNW 2.0 mph /  3.2 km/h 7.0 mph /  11.3 km/h 65 % 0.00 in /  0 mm
06:59 24.1 °F /  -4.4 °C 14.0 °F /  -10 °C 30.48 in /  1032.1 hPa NW 4.0 mph /  6.4 km/h 7.0 mph /  11.3 km/h 65 % 0.00 in /  0 mm
07:04 23.9 °F /  -4.5 °C 13.8 °F /  -10.1 °C 30.48 in /  1032.1 hPa NNW 2.0 mph /  3.2 km/h 7.0 mph /  11.3 km/h 65 % 0.00 in /  0 mm
07:09 23.9 °F /  -4.5 °C 13.8 °F /  -10.1 °C 30.48 in /  1032.1 hPa NW 1.0 mph /  1.6 km/h 6.0 mph /  9.7 km/h 65 % 0.00 in /  0 mm
07:11 23.7 °F /  -4.6 °C 13.6 °F /  -10.2 °C 30.48 in /  1032.1 hPa WNW 3.0 mph /  4.8 km/h 5.0 mph /  8 km/h 65 % 0.00 in /  0 mm
07:16 23.7 °F /  -4.6 °C 13.6 °F /  -10.2 °C 30.48 in /  1032.1 hPa NNW 1.0 mph /  1.6 km/h 4.0 mph /  6.4 km/h 65 % 0.00 in /  0 mm
07:17 23.7 °F /  -4.6 °C 13.6 °F /  -10.2 °C 30.48 in /  1032.1 hPa NNW 1.0 mph /  1.6 km/h 4.0 mph /  6.4 km/h 65 % 0.00 in /  0 mm
07:20 23.7 °F /  -4.6 °C 13.6 °F /  -10.2 °C 30.48 in /  1032.1 hPa NNW 2.0 mph /  3.2 km/h 4.0 mph /  6.4 km/h 65 % 0.00 in /  0 mm
07:25 23.7 °F /  -4.6 °C 13.6 °F /  -10.2 °C 30.48 in /  1032.1 hPa Calm   4.0 mph /  6.4 km/h 65 % 0.00 in /  0 mm
07:29 23.7 °F /  -4.6 °C 13.6 °F /  -10.2 °C 30.48 in /  1032.1 hPa NNW 1.0 mph /  1.6 km/h 4.0 mph /  6.4 km/h 65 % 0.00 in /  0 mm
07:34 23.7 °F /  -4.6 °C 13.6 °F /  -10.2 °C 30.48 in /  1032.1 hPa Calm   4.0 mph /  6.4 km/h 65 % 0.00 in /  0 mm
07:38 23.7 °F /  -4.6 °C 13.6 °F /  -10.2 °C 30.48 in /  1032.1 hPa Calm   4.0 mph /  6.4 km/h 65 % 0.00 in /  0 mm
07:44 23.7 °F /  -4.6 °C 13.6 °F /  -10.2 °C 30.48 in /  1032.1 hPa NW 2.0 mph /  3.2 km/h 4.0 mph /  6.4 km/h 65 % 0.00 in /  0 mm
07:49 24.1 °F /  -4.4 °C 14.0 °F /  -10 °C 30.48 in /  1032.1 hPa NW 3.0 mph /  4.8 km/h 4.0 mph /  6.4 km/h 65 % 0.00 in /  0 mm
07:51 24.1 °F /  -4.4 °C 14.0 °F /  -10 °C 30.48 in /  1032.1 hPa NW 3.0 mph /  4.8 km/h 5.0 mph /  8 km/h 65 % 0.00 in /  0 mm
07:56 24.3 °F /  -4.3 °C 14.2 °F /  -9.9 °C 30.48 in /  1032.1 hPa NNW 2.0 mph /  3.2 km/h 5.0 mph /  8 km/h 65 % 0.00 in /  0 mm
07:57 24.4 °F /  -4.2 °C 14.4 °F /  -9.8 °C 30.48 in /  1032.1 hPa Calm   5.0 mph /  8 km/h 65 % 0.00 in /  0 mm
08:02 24.6 °F /  -4.1 °C 14.2 °F /  -9.9 °C 30.48 in /  1032.1 hPa NW 2.0 mph /  3.2 km/h 5.0 mph /  8 km/h 64 % 0.00 in /  0 mm
08:07 25.0 °F /  -3.9 °C 14.5 °F /  -9.7 °C 30.48 in /  1032.1 hPa Calm   5.0 mph /  8 km/h 64 % 0.00 in /  0 mm
08:10 25.2 °F /  -3.8 °C 14.7 °F /  -9.6 °C 30.48 in /  1032.1 hPa NNW 1.0 mph /  1.6 km/h 5.0 mph /  8 km/h 64 % 0.00 in /  0 mm
08:13 25.2 °F /  -3.8 °C 14.4 °F /  -9.8 °C 30.48 in /  1032.1 hPa NW 3.0 mph /  4.8 km/h 5.0 mph /  8 km/h 63 % 0.00 in /  0 mm
08:17 25.3 °F /  -3.7 °C 14.5 °F /  -9.7 °C 30.48 in /  1032.1 hPa Calm   5.0 mph /  8 km/h 63 % 0.00 in /  0 mm
08:18 25.5 °F /  -3.6 °C 14.7 °F /  -9.6 °C 30.48 in /  1032.1 hPa NNW 2.0 mph /  3.2 km/h 5.0 mph /  8 km/h 63 % 0.00 in /  0 mm
08:23 25.7 °F /  -3.5 °C 14.5 °F /  -9.7 °C 30.48 in /  1032.1 hPa NNW 2.0 mph /  3.2 km/h 5.0 mph /  8 km/h 62 % 0.00 in /  0 mm
08:24 25.9 °F /  -3.4 °C 14.7 °F /  -9.6 °C 30.48 in /  1032.1 hPa North 3.0 mph /  4.8 km/h 5.0 mph /  8 km/h 62 % 0.00 in /  0 mm
08:29 26.1 °F /  -3.3 °C 14.5 °F /  -9.7 °C 30.48 in /  1032.1 hPa WSW 2.0 mph /  3.2 km/h 5.0 mph /  8 km/h 61 % 0.00 in /  0 mm
08:34 26.2 °F /  -3.2 °C 15.1 °F /  -9.4 °C 30.48 in /  1032.1 hPa Calm   5.0 mph /  8 km/h 62 % 0.00 in /  0 mm
08:36 26.6 °F /  -3 °C 15.3 °F /  -9.3 °C 30.48 in /  1032.1 hPa North 1.0 mph /  1.6 km/h 5.0 mph /  8 km/h 62 % 0.00 in /  0 mm
08:39 26.8 °F /  -2.9 °C 15.1 °F /  -9.4 °C 30.49 in /  1032.4 hPa North 2.0 mph /  3.2 km/h 5.0 mph /  8 km/h 61 % 0.00 in /  0 mm
08:44 27.1 °F /  -2.7 °C 15.1 °F /  -9.4 °C 30.49 in /  1032.4 hPa NW 3.0 mph /  4.8 km/h 5.0 mph /  8 km/h 60 % 0.00 in /  0 mm
08:46 27.1 °F /  -2.7 °C 15.1 °F /  -9.4 °C 30.49 in /  1032.4 hPa NW 4.0 mph /  6.4 km/h 7.0 mph /  11.3 km/h 60 % 0.00 in /  0 mm
08:51 27.3 °F /  -2.6 °C 14.9 °F /  -9.5 °C 30.49 in /  1032.4 hPa NNW 6.0 mph /  9.7 km/h 7.0 mph /  11.3 km/h 59 % 0.00 in /  0 mm
08:52 27.3 °F /  -2.6 °C 14.9 °F /  -9.5 °C 30.49 in /  1032.4 hPa NW 5.0 mph /  8 km/h 7.0 mph /  11.3 km/h 59 % 0.00 in /  0 mm
08:57 27.7 °F /  -2.4 °C 15.3 °F /  -9.3 °C 30.49 in /  1032.4 hPa NNW 5.0 mph /  8 km/h 7.0 mph /  11.3 km/h 59 % 0.00 in /  0 mm
08:58 27.7 °F /  -2.4 °C 15.3 °F /  -9.3 °C 30.49 in /  1032.4 hPa NNW 6.0 mph /  9.7 km/h 7.0 mph /  11.3 km/h 59 % 0.00 in /  0 mm
09:03 27.9 °F /  -2.3 °C 15.4 °F /  -9.2 °C 30.49 in /  1032.4 hPa NNW 2.0 mph /  3.2 km/h 7.0 mph /  11.3 km/h 59 % 0.00 in /  0 mm
09:05 28.0 °F /  -2.2 °C 15.6 °F /  -9.1 °C 30.49 in /  1032.4 hPa NNW 4.0 mph /  6.4 km/h 7.0 mph /  11.3 km/h 59 % 0.00 in /  0 mm
09:10 28.8 °F /  -1.8 °C 16.2 °F /  -8.8 °C 30.49 in /  1032.4 hPa NW 3.0 mph /  4.8 km/h 7.0 mph /  11.3 km/h 59 % 0.00 in /  0 mm
09:15 29.1 °F /  -1.6 °C 15.8 °F /  -9 °C 30.50 in /  1032.7 hPa NW 2.0 mph /  3.2 km/h 6.0 mph /  9.7 km/h 57 % 0.00 in /  0 mm
09:16 29.1 °F /  -1.6 °C 15.8 °F /  -9 °C 30.50 in /  1032.7 hPa NW 2.0 mph /  3.2 km/h 6.0 mph /  9.7 km/h 57 % 0.00 in /  0 mm
09:21 29.5 °F /  -1.4 °C 16.5 °F /  -8.6 °C 30.49 in /  1032.4 hPa NNE 1.0 mph /  1.6 km/h 6.0 mph /  9.7 km/h 58 % 0.00 in /  0 mm
09:23 29.5 °F /  -1.4 °C 15.8 °F /  -9 °C 30.49 in /  1032.4 hPa North 2.0 mph /  3.2 km/h 6.0 mph /  9.7 km/h 56 % 0.00 in /  0 mm
09:28 29.8 °F /  -1.2 °C 16.0 °F /  -8.9 °C 30.49 in /  1032.4 hPa NNW 2.0 mph /  3.2 km/h 6.0 mph /  9.7 km/h 56 % 0.00 in /  0 mm
09:31 30.0 °F /  -1.1 °C 16.2 °F /  -8.8 °C 30.50 in /  1032.7 hPa NNW 3.0 mph /  4.8 km/h 6.0 mph /  9.7 km/h 56 % 0.00 in /  0 mm
09:36 30.4 °F /  -0.9 °C 16.2 °F /  -8.8 °C 30.50 in /  1032.7 hPa NNW 1.0 mph /  1.6 km/h 7.0 mph /  11.3 km/h 55 % 0.00 in /  0 mm
09:37 30.6 °F /  -0.8 °C 16.3 °F /  -8.7 °C 30.50 in /  1032.7 hPa NW 5.0 mph /  8 km/h 7.0 mph /  11.3 km/h 55 % 0.00 in /  0 mm
09:41 30.9 °F /  -0.6 °C 16.7 °F /  -8.5 °C 30.50 in /  1032.7 hPa NNW 3.0 mph /  4.8 km/h 7.0 mph /  11.3 km/h 55 % 0.00 in /  0 mm
09:44 31.1 °F /  -0.5 °C 16.3 °F /  -8.7 °C 30.50 in /  1032.7 hPa NW 5.0 mph /  8 km/h 7.0 mph /  11.3 km/h 54 % 0.00 in /  0 mm
09:49 31.3 °F /  -0.4 °C 16.2 °F /  -8.8 °C 30.50 in /  1032.7 hPa NW 4.0 mph /  6.4 km/h 8.0 mph /  12.9 km/h 53 % 0.00 in /  0 mm
09:54 31.1 °F /  -0.5 °C 16.0 °F /  -8.9 °C 30.50 in /  1032.7 hPa NW 2.0 mph /  3.2 km/h 8.0 mph /  12.9 km/h 53 % 0.00 in /  0 mm
09:59 31.3 °F /  -0.4 °C 16.2 °F /  -8.8 °C 30.50 in /  1032.7 hPa WNW 6.0 mph /  9.7 km/h 8.0 mph /  12.9 km/h 53 % 0.00 in /  0 mm
10:02 31.5 °F /  -0.3 °C 15.8 °F /  -9 °C 30.50 in /  1032.7 hPa WNW 6.0 mph /  9.7 km/h 10.0 mph /  16.1 km/h 52 % 0.00 in /  0 mm
10:07 31.8 °F /  -0.1 °C 16.2 °F /  -8.8 °C 30.49 in /  1032.4 hPa NNW 7.0 mph /  11.3 km/h 10.0 mph /  16.1 km/h 52 % 0.00 in /  0 mm
10:09 32.2 °F /  0.1 °C 16.2 °F /  -8.8 °C 30.49 in /  1032.4 hPa NW 3.0 mph /  4.8 km/h 10.0 mph /  16.1 km/h 51 % 0.00 in /  0 mm
10:12 32.4 °F /  0.2 °C 16.3 °F /  -8.7 °C 30.49 in /  1032.4 hPa North 1.0 mph /  1.6 km/h 10.0 mph /  16.1 km/h 51 % 0.00 in /  0 mm
10:16 32.7 °F /  0.4 °C 16.2 °F /  -8.8 °C 30.49 in /  1032.4 hPa NNE 7.0 mph /  11.3 km/h 8.0 mph /  12.9 km/h 50 % 0.00 in /  0 mm
10:17 32.7 °F /  0.4 °C 16.2 °F /  -8.8 °C 30.49 in /  1032.4 hPa NNW 2.0 mph /  3.2 km/h 8.0 mph /  12.9 km/h 50 % 0.00 in /  0 mm
10:22 33.1 °F /  0.6 °C 16.5 °F /  -8.6 °C 30.49 in /  1032.4 hPa NW 2.0 mph /  3.2 km/h 8.0 mph /  12.9 km/h 50 % 0.00 in /  0 mm
10:24 33.3 °F /  0.7 °C 16.7 °F /  -8.5 °C 30.49 in /  1032.4 hPa NW 3.0 mph /  4.8 km/h 8.0 mph /  12.9 km/h 50 % 0.00 in /  0 mm
10:29 33.8 °F /  1 °C 16.7 °F /  -8.5 °C 30.49 in /  1032.4 hPa Calm   8.0 mph /  12.9 km/h 49 % 0.00 in /  0 mm
10:30 33.8 °F /  1 °C 16.2 °F /  -8.8 °C 30.49 in /  1032.4 hPa WNW 1.0 mph /  1.6 km/h 8.0 mph /  12.9 km/h 48 % 0.00 in /  0 mm
10:35 33.8 °F /  1 °C 16.2 °F /  -8.8 °C 30.48 in /  1032.1 hPa NW 1.0 mph /  1.6 km/h 8.0 mph /  12.9 km/h 48 % 0.00 in /  0 mm
10:36 33.8 °F /  1 °C 16.2 °F /  -8.8 °C 30.48 in /  1032.1 hPa NNW 5.0 mph /  8 km/h 8.0 mph /  12.9 km/h 48 % 0.00 in /  0 mm
10:41 34.0 °F /  1.1 °C 16.3 °F /  -8.7 °C 30.48 in /  1032.1 hPa NNW 5.0 mph /  8 km/h 8.0 mph /  12.9 km/h 48 % 0.00 in /  0 mm
10:42 34.2 °F /  1.2 °C 16.5 °F /  -8.6 °C 30.48 in /  1032.1 hPa North 10.0 mph /  16.1 km/h 10.0 mph /  16.1 km/h 48 % 0.00 in /  0 mm
10:47 34.2 °F /  1.2 °C 16.0 °F /  -8.9 °C 30.48 in /  1032.1 hPa NNW 3.0 mph /  4.8 km/h 13.0 mph /  20.9 km/h 47 % 0.00 in /  0 mm
10:49 34.3 °F /  1.3 °C 16.7 °F /  -8.5 °C 30.48 in /  1032.1 hPa NNE 3.0 mph /  4.8 km/h 13.0 mph /  20.9 km/h 48 % 0.00 in /  0 mm
10:52 34.5 °F /  1.4 °C 16.9 °F /  -8.4 °C 30.48 in /  1032.1 hPa NW 5.0 mph /  8 km/h 13.0 mph /  20.9 km/h 48 % 0.00 in /  0 mm
10:56 34.9 °F /  1.6 °C 17.2 °F /  -8.2 °C 30.47 in /  1031.7 hPa NNW 4.0 mph /  6.4 km/h 13.0 mph /  20.9 km/h 48 % 0.00 in /  0 mm
11:01 35.4 °F /  1.9 °C 16.7 °F /  -8.5 °C 30.47 in /  1031.7 hPa NNW 2.0 mph /  3.2 km/h 9.0 mph /  14.5 km/h 46 % 0.00 in /  0 mm
11:03 35.4 °F /  1.9 °C 16.7 °F /  -8.5 °C 30.47 in /  1031.7 hPa North 2.0 mph /  3.2 km/h 9.0 mph /  14.5 km/h 46 % 0.00 in /  0 mm
11:08 35.6 °F /  2 °C 16.3 °F /  -8.7 °C 30.47 in /  1031.7 hPa NE 7.0 mph /  11.3 km/h 9.0 mph /  14.5 km/h 45 % 0.00 in /  0 mm
11:10 35.4 °F /  1.9 °C 15.6 °F /  -9.1 °C 30.47 in /  1031.7 hPa WNW 1.0 mph /  1.6 km/h 12.0 mph /  19.3 km/h 44 % 0.00 in /  0 mm
11:15 35.8 °F /  2.1 °C 16.5 °F /  -8.6 °C 30.47 in /  1031.7 hPa NNW 6.0 mph /  9.7 km/h 12.0 mph /  19.3 km/h 45 % 0.00 in /  0 mm
11:17 35.8 °F /  2.1 °C 16.0 °F /  -8.9 °C 30.47 in /  1031.7 hPa North 4.0 mph /  6.4 km/h 12.0 mph /  19.3 km/h 44 % 0.00 in /  0 mm
11:22 36.0 °F /  2.2 °C 16.2 °F /  -8.8 °C 30.46 in /  1031.4 hPa NNW 6.0 mph /  9.7 km/h 12.0 mph /  19.3 km/h 44 % 0.00 in /  0 mm
11:27 36.1 °F /  2.3 °C 16.3 °F /  -8.7 °C 30.46 in /  1031.4 hPa NNW 5.0 mph /  8 km/h 10.0 mph /  16.1 km/h 44 % 0.00 in /  0 mm
11:32 36.7 °F /  2.6 °C 16.9 °F /  -8.4 °C 30.46 in /  1031.4 hPa NW 5.0 mph /  8 km/h 9.0 mph /  14.5 km/h 44 % 0.00 in /  0 mm
11:37 37.2 °F /  2.9 °C 16.7 °F /  -8.5 °C 30.45 in /  1031 hPa NW 4.0 mph /  6.4 km/h 9.0 mph /  14.5 km/h 43 % 0.00 in /  0 mm
11:39 37.2 °F /  2.9 °C 16.2 °F /  -8.8 °C 30.45 in /  1031 hPa NW 2.0 mph /  3.2 km/h 9.0 mph /  14.5 km/h 42 % 0.00 in /  0 mm
11:44 37.2 °F /  2.9 °C 16.7 °F /  -8.5 °C 30.45 in /  1031 hPa NNW 6.0 mph /  9.7 km/h 9.0 mph /  14.5 km/h 43 % 0.00 in /  0 mm
11:46 37.4 °F /  3 °C 16.3 °F /  -8.7 °C 30.45 in /  1031 hPa North 7.0 mph /  11.3 km/h 9.0 mph /  14.5 km/h 42 % 0.00 in /  0 mm
11:49 37.6 °F /  3.1 °C 16.0 °F /  -8.9 °C 30.44 in /  1030.7 hPa North 1.0 mph /  1.6 km/h 9.0 mph /  14.5 km/h 41 % 0.00 in /  0 mm
11:51 37.2 °F /  2.9 °C 15.1 °F /  -9.4 °C 30.44 in /  1030.7 hPa West 4.0 mph /  6.4 km/h 9.0 mph /  14.5 km/h 40 % 0.00 in /  0 mm
11:56 37.6 °F /  3.1 °C 16.0 °F /  -8.9 °C 30.44 in /  1030.7 hPa North 4.0 mph /  6.4 km/h 9.0 mph /  14.5 km/h 41 % 0.00 in /  0 mm
11:57 37.6 °F /  3.1 °C 16.0 °F /  -8.9 °C 30.44 in /  1030.7 hPa North 5.0 mph /  8 km/h 9.0 mph /  14.5 km/h 41 % 0.00 in /  0 mm
12:02 37.9 °F /  3.3 °C 15.8 °F /  -9 °C 30.43 in /  1030.4 hPa NW 6.0 mph /  9.7 km/h 10.0 mph /  16.1 km/h 40 % 0.00 in /  0 mm
12:03 37.9 °F /  3.3 °C 16.3 °F /  -8.7 °C 30.43 in /  1030.4 hPa NW 4.0 mph /  6.4 km/h 10.0 mph /  16.1 km/h 41 % 0.00 in /  0 mm
12:07 38.3 °F /  3.5 °C 16.2 °F /  -8.8 °C 30.43 in /  1030.4 hPa NNE 6.0 mph /  9.7 km/h 10.0 mph /  16.1 km/h 40 % 0.00 in /  0 mm
12:09 38.1 °F /  3.4 °C 16.0 °F /  -8.9 °C 30.43 in /  1030.4 hPa NW 2.0 mph /  3.2 km/h 10.0 mph /  16.1 km/h 40 % 0.00 in /  0 mm
12:14 38.3 °F /  3.5 °C 16.2 °F /  -8.8 °C 30.43 in /  1030.4 hPa NNW 3.0 mph /  4.8 km/h 10.0 mph /  16.1 km/h 40 % 0.00 in /  0 mm
12:19 39.0 °F /  3.9 °C 16.7 °F /  -8.5 °C 30.43 in /  1030.4 hPa Calm   9.0 mph /  14.5 km/h 40 % 0.00 in /  0 mm
12:20 39.2 °F /  4 °C 17.4 °F /  -8.1 °C 30.42 in /  1030 hPa North 4.0 mph /  6.4 km/h 9.0 mph /  14.5 km/h 41 % 0.00 in /  0 mm
12:22 39.6 °F /  4.2 °C 17.2 °F /  -8.2 °C 30.42 in /  1030 hPa NNE 3.0 mph /  4.8 km/h 9.0 mph /  14.5 km/h 40 % 0.00 in /  0 mm
12:27 39.9 °F /  4.4 °C 17.6 °F /  -8 °C 30.42 in /  1030 hPa NNW 3.0 mph /  4.8 km/h 8.0 mph /  12.9 km/h 40 % 0.00 in /  0 mm
12:28 39.9 °F /  4.4 °C 17.6 °F /  -8 °C 30.42 in /  1030 hPa NNW 8.0 mph /  12.9 km/h 8.0 mph /  12.9 km/h 40 % 0.00 in /  0 mm
12:33 40.1 °F /  4.5 °C 17.8 °F /  -7.9 °C 30.41 in /  1029.7 hPa WSW 2.0 mph /  3.2 km/h 9.0 mph /  14.5 km/h 40 % 0.00 in /  0 mm
12:36 40.5 °F /  4.7 °C 17.4 °F /  -8.1 °C 30.41 in /  1029.7 hPa WNW 2.0 mph /  3.2 km/h 9.0 mph /  14.5 km/h 39 % 0.00 in /  0 mm
12:41 40.1 °F /  4.5 °C 16.5 °F /  -8.6 °C 30.41 in /  1029.7 hPa SW 1.0 mph /  1.6 km/h 9.0 mph /  14.5 km/h 38 % 0.00 in /  0 mm
12:44 40.3 °F /  4.6 °C 18.0 °F /  -7.8 °C 30.41 in /  1029.7 hPa West 2.0 mph /  3.2 km/h 9.0 mph /  14.5 km/h 40 % 0.00 in /  0 mm
12:48 40.6 °F /  4.8 °C 17.6 °F /  -8 °C 30.40 in /  1029.3 hPa WNW 4.0 mph /  6.4 km/h 7.0 mph /  11.3 km/h 39 % 0.00 in /  0 mm
12:53 41.4 °F /  5.2 °C 18.3 °F /  -7.6 °C 30.40 in /  1029.3 hPa NNW 4.0 mph /  6.4 km/h 7.0 mph /  11.3 km/h 39 % 0.00 in /  0 mm
12:58 41.7 °F /  5.4 °C 17.4 °F /  -8.1 °C 30.40 in /  1029.3 hPa North 4.0 mph /  6.4 km/h 8.0 mph /  12.9 km/h 37 % 0.00 in /  0 mm
12:59 41.7 °F /  5.4 °C 18.0 °F /  -7.8 °C 30.40 in /  1029.3 hPa NNW 5.0 mph /  8 km/h 8.0 mph /  12.9 km/h 38 % 0.00 in /  0 mm
13:01 41.5 °F /  5.3 °C 17.8 °F /  -7.9 °C 30.40 in /  1029.3 hPa NNW 6.0 mph /  9.7 km/h 8.0 mph /  12.9 km/h 38 % 0.00 in /  0 mm
13:06 41.5 °F /  5.3 °C 17.8 °F /  -7.9 °C 30.39 in /  1029 hPa North 3.0 mph /  4.8 km/h 8.0 mph /  12.9 km/h 38 % 0.00 in /  0 mm
13:07 41.5 °F /  5.3 °C 17.8 °F /  -7.9 °C 30.39 in /  1029 hPa NNE 3.0 mph /  4.8 km/h 8.0 mph /  12.9 km/h 38 % 0.00 in /  0 mm
13:12 41.9 °F /  5.5 °C 17.6 °F /  -8 °C 30.38 in /  1028.7 hPa NW 2.0 mph /  3.2 km/h 8.0 mph /  12.9 km/h 37 % 0.00 in /  0 mm
13:13 41.9 °F /  5.5 °C 17.6 °F /  -8 °C 30.38 in /  1028.7 hPa North 2.0 mph /  3.2 km/h 8.0 mph /  12.9 km/h 37 % 0.00 in /  0 mm
13:18 42.1 °F /  5.6 °C 17.6 °F /  -8 °C 30.38 in /  1028.7 hPa Calm   7.0 mph /  11.3 km/h 37 % 0.00 in /  0 mm
13:19 42.1 °F /  5.6 °C 17.6 °F /  -8 °C 30.38 in /  1028.7 hPa NE 1.0 mph /  1.6 km/h 7.0 mph /  11.3 km/h 37 % 0.00 in /  0 mm
13:20 42.1 °F /  5.6 °C 18.3 °F /  -7.6 °C 30.38 in /  1028.7 hPa North 1.0 mph /  1.6 km/h 7.0 mph /  11.3 km/h 38 % 0.00 in /  0 mm
13:25 42.3 °F /  5.7 °C 17.2 °F /  -8.2 °C 30.38 in /  1028.7 hPa NW 1.0 mph /  1.6 km/h 10.0 mph /  16.1 km/h 36 % 0.00 in /  0 mm
13:29 42.3 °F /  5.7 °C 17.8 °F /  -7.9 °C 30.37 in /  1028.3 hPa NNW 3.0 mph /  4.8 km/h 10.0 mph /  16.1 km/h 37 % 0.00 in /  0 mm
13:30 42.3 °F /  5.7 °C 18.5 °F /  -7.5 °C 30.37 in /  1028.3 hPa NNE 3.0 mph /  4.8 km/h 10.0 mph /  16.1 km/h 38 % 0.00 in /  0 mm
13:36 42.6 °F /  5.9 °C 18.1 °F /  -7.7 °C 30.37 in /  1028.3 hPa WSW 1.0 mph /  1.6 km/h 10.0 mph /  16.1 km/h 37 % 0.00 in /  0 mm
13:38 42.6 °F /  5.9 °C 18.1 °F /  -7.7 °C 30.37 in /  1028.3 hPa Calm   10.0 mph /  16.1 km/h 37 % 0.00 in /  0 mm
13:41 43.2 °F /  6.2 °C 18.0 °F /  -7.8 °C 30.37 in /  1028.3 hPa East 1.0 mph /  1.6 km/h 7.0 mph /  11.3 km/h 36 % 0.00 in /  0 mm
13:44 43.3 °F /  6.3 °C 18.1 °F /  -7.7 °C 30.37 in /  1028.3 hPa WNW 1.0 mph /  1.6 km/h 7.0 mph /  11.3 km/h 36 % 0.00 in /  0 mm
13:47 43.3 °F /  6.3 °C 18.1 °F /  -7.7 °C 30.36 in /  1028 hPa NW 3.0 mph /  4.8 km/h 7.0 mph /  11.3 km/h 36 % 0.00 in /  0 mm
13:49 43.5 °F /  6.4 °C 19.0 °F /  -7.2 °C 30.36 in /  1028 hPa WNW 2.0 mph /  3.2 km/h 7.0 mph /  11.3 km/h 37 % 0.00 in /  0 mm
13:55 43.9 °F /  6.6 °C 19.9 °F /  -6.7 °C 30.36 in /  1028 hPa Calm   5.0 mph /  8 km/h 38 % 0.00 in /  0 mm
14:00 44.2 °F /  6.8 °C 19.0 °F /  -7.2 °C 30.36 in /  1028 hPa NW 6.0 mph /  9.7 km/h 8.0 mph /  12.9 km/h 36 % 0.00 in /  0 mm
14:01 44.2 °F /  6.8 °C 18.3 °F /  -7.6 °C 30.36 in /  1028 hPa WNW 5.0 mph /  8 km/h 8.0 mph /  12.9 km/h 35 % 0.00 in /  0 mm
14:03 44.2 °F /  6.8 °C 18.3 °F /  -7.6 °C 30.36 in /  1028 hPa NNW 5.0 mph /  8 km/h 8.0 mph /  12.9 km/h 35 % 0.00 in /  0 mm
14:07 43.9 °F /  6.6 °C 18.7 °F /  -7.4 °C 30.36 in /  1028 hPa NNW 4.0 mph /  6.4 km/h 8.0 mph /  12.9 km/h 36 % 0.00 in /  0 mm
14:12 44.1 °F /  6.7 °C 18.1 °F /  -7.7 °C 30.35 in /  1027.7 hPa Calm   8.0 mph /  12.9 km/h 35 % 0.00 in /  0 mm
14:17 44.6 °F /  7 °C 18.7 °F /  -7.4 °C 30.35 in /  1027.7 hPa West 1.0 mph /  1.6 km/h 8.0 mph /  12.9 km/h 35 % 0.00 in /  0 mm
14:20 44.8 °F /  7.1 °C 18.9 °F /  -7.3 °C 30.35 in /  1027.7 hPa North 5.0 mph /  8 km/h 8.0 mph /  12.9 km/h 35 % 0.00 in /  0 mm
14:25 45.0 °F /  7.2 °C 18.9 °F /  -7.3 °C 30.35 in /  1027.7 hPa NNW 2.0 mph /  3.2 km/h 10.0 mph /  16.1 km/h 35 % 0.00 in /  0 mm
14:28 45.1 °F /  7.3 °C 19.0 °F /  -7.2 °C 30.35 in /  1027.7 hPa NNE 1.0 mph /  1.6 km/h 10.0 mph /  16.1 km/h 35 % 0.00 in /  0 mm
14:33 45.1 °F /  7.3 °C 19.0 °F /  -7.2 °C 30.35 in /  1027.7 hPa WNW 2.0 mph /  3.2 km/h 10.0 mph /  16.1 km/h 35 % 0.00 in /  0 mm
14:35 45.3 °F /  7.4 °C 18.7 °F /  -7.4 °C 30.35 in /  1027.7 hPa NW 1.0 mph /  1.6 km/h 10.0 mph /  16.1 km/h 34 % 0.00 in /  0 mm
14:38 45.3 °F /  7.4 °C 18.7 °F /  -7.4 °C 30.35 in /  1027.7 hPa WNW 1.0 mph /  1.6 km/h 10.0 mph /  16.1 km/h 34 % 0.00 in /  0 mm
14:41 45.5 °F /  7.5 °C 18.7 °F /  -7.4 °C 30.35 in /  1027.7 hPa WNW 4.0 mph /  6.4 km/h 9.0 mph /  14.5 km/h 34 % 0.00 in /  0 mm
14:46 45.3 °F /  7.4 °C 18.7 °F /  -7.4 °C 30.34 in /  1027.3 hPa North 6.0 mph /  9.7 km/h 9.0 mph /  14.5 km/h 34 % 0.00 in /  0 mm
14:48 45.5 °F /  7.5 °C 18.7 °F /  -7.4 °C 30.34 in /  1027.3 hPa Calm   9.0 mph /  14.5 km/h 34 % 0.00 in /  0 mm
14:53 45.7 °F /  7.6 °C 18.1 °F /  -7.7 °C 30.34 in /  1027.3 hPa NW 1.0 mph /  1.6 km/h 9.0 mph /  14.5 km/h 33 % 0.00 in /  0 mm
14:54 45.7 °F /  7.6 °C 18.9 °F /  -7.3 °C 30.34 in /  1027.3 hPa NW 3.0 mph /  4.8 km/h 9.0 mph /  14.5 km/h 34 % 0.00 in /  0 mm
14:55 45.7 °F /  7.6 °C 18.1 °F /  -7.7 °C 30.34 in /  1027.3 hPa NNW 6.0 mph /  9.7 km/h 9.0 mph /  14.5 km/h 33 % 0.00 in /  0 mm
15:00 45.7 °F /  7.6 °C 18.9 °F /  -7.3 °C 30.34 in /  1027.3 hPa Calm   9.0 mph /  14.5 km/h 34 % 0.00 in /  0 mm
15:01 45.7 °F /  7.6 °C 18.9 °F /  -7.3 °C 30.34 in /  1027.3 hPa NW 2.0 mph /  3.2 km/h 9.0 mph /  14.5 km/h 34 % 0.00 in /  0 mm
15:06 46.0 °F /  7.8 °C 18.5 °F /  -7.5 °C 30.33 in /  1027 hPa WSW 2.0 mph /  3.2 km/h 9.0 mph /  14.5 km/h 33 % 0.00 in /  0 mm
15:09 46.0 °F /  7.8 °C 18.5 °F /  -7.5 °C 30.33 in /  1027 hPa WNW 2.0 mph /  3.2 km/h 9.0 mph /  14.5 km/h 33 % 0.00 in /  0 mm
15:14 46.2 °F /  7.9 °C 18.7 °F /  -7.4 °C 30.33 in /  1027 hPa North 7.0 mph /  11.3 km/h 7.0 mph /  11.3 km/h 33 % 0.00 in /  0 mm
15:17 46.2 °F /  7.9 °C 19.4 °F /  -7 °C 30.33 in /  1027 hPa North 1.0 mph /  1.6 km/h 7.0 mph /  11.3 km/h 34 % 0.00 in /  0 mm
15:22 46.2 °F /  7.9 °C 18.7 °F /  -7.4 °C 30.34 in /  1027.3 hPa NW 2.0 mph /  3.2 km/h 7.0 mph /  11.3 km/h 33 % 0.00 in /  0 mm
15:27 46.9 °F /  8.3 °C 19.9 °F /  -6.7 °C 30.33 in /  1027 hPa NNW 4.0 mph /  6.4 km/h 7.0 mph /  11.3 km/h 34 % 0.00 in /  0 mm
15:29 46.9 °F /  8.3 °C 18.7 °F /  -7.4 °C 30.33 in /  1027 hPa NNW 3.0 mph /  4.8 km/h 7.0 mph /  11.3 km/h 32 % 0.00 in /  0 mm
15:34 46.9 °F /  8.3 °C 19.4 °F /  -7 °C 30.33 in /  1027 hPa NNW 3.0 mph /  4.8 km/h 8.0 mph /  12.9 km/h 33 % 0.00 in /  0 mm
15:36 46.9 °F /  8.3 °C 19.4 °F /  -7 °C 30.33 in /  1027 hPa NNW 3.0 mph /  4.8 km/h 8.0 mph /  12.9 km/h 33 % 0.00 in /  0 mm
15:37 46.9 °F /  8.3 °C 19.4 °F /  -7 °C 30.33 in /  1027 hPa NW 6.0 mph /  9.7 km/h 8.0 mph /  12.9 km/h 33 % 0.00 in /  0 mm
15:42 46.9 °F /  8.3 °C 19.4 °F /  -7 °C 30.33 in /  1027 hPa NNW 6.0 mph /  9.7 km/h 8.0 mph /  12.9 km/h 33 % 0.00 in /  0 mm
15:44 46.8 °F /  8.2 °C 18.5 °F /  -7.5 °C 30.33 in /  1027 hPa North 1.0 mph /  1.6 km/h 8.0 mph /  12.9 km/h 32 % 0.00 in /  0 mm
15:49 46.9 °F /  8.3 °C 19.4 °F /  -7 °C 30.33 in /  1027 hPa NW 3.0 mph /  4.8 km/h 8.0 mph /  12.9 km/h 33 % 0.00 in /  0 mm
15:50 46.9 °F /  8.3 °C 19.4 °F /  -7 °C 30.33 in /  1027 hPa NW 3.0 mph /  4.8 km/h 8.0 mph /  12.9 km/h 33 % 0.00 in /  0 mm
15:55 46.9 °F /  8.3 °C 19.4 °F /  -7 °C 30.33 in /  1027 hPa NW 3.0 mph /  4.8 km/h 7.0 mph /  11.3 km/h 33 % 0.00 in /  0 mm
15:57 46.9 °F /  8.3 °C 19.4 °F /  -7 °C 30.33 in /  1027 hPa NW 5.0 mph /  8 km/h 7.0 mph /  11.3 km/h 33 % 0.00 in /  0 mm
16:02 46.8 °F /  8.2 °C 19.2 °F /  -7.1 °C 30.32 in /  1026.6 hPa NW 3.0 mph /  4.8 km/h 8.0 mph /  12.9 km/h 33 % 0.00 in /  0 mm
16:04 46.8 °F /  8.2 °C 19.2 °F /  -7.1 °C 30.32 in /  1026.6 hPa NNW 2.0 mph /  3.2 km/h 8.0 mph /  12.9 km/h 33 % 0.00 in /  0 mm
16:09 46.9 °F /  8.3 °C 19.9 °F /  -6.7 °C 30.32 in /  1026.6 hPa NW 3.0 mph /  4.8 km/h 8.0 mph /  12.9 km/h 34 % 0.00 in /  0 mm
16:11 46.9 °F /  8.3 °C 19.4 °F /  -7 °C 30.32 in /  1026.6 hPa NNW 1.0 mph /  1.6 km/h 8.0 mph /  12.9 km/h 33 % 0.00 in /  0 mm
16:14 47.1 °F /  8.4 °C 20.1 °F /  -6.6 °C 30.32 in /  1026.6 hPa NNE 2.0 mph /  3.2 km/h 8.0 mph /  12.9 km/h 34 % 0.00 in /  0 mm
16:16 47.3 °F /  8.5 °C 20.3 °F /  -6.5 °C 30.32 in /  1026.6 hPa NNW 1.0 mph /  1.6 km/h 6.0 mph /  9.7 km/h 34 % 0.00 in /  0 mm
16:21 47.3 °F /  8.5 °C 20.3 °F /  -6.5 °C 30.32 in /  1026.6 hPa NW 5.0 mph /  8 km/h 7.0 mph /  11.3 km/h 34 % 0.00 in /  0 mm
16:22 47.3 °F /  8.5 °C 19.6 °F /  -6.9 °C 30.32 in /  1026.6 hPa WNW 3.0 mph /  4.8 km/h 7.0 mph /  11.3 km/h 33 % 0.00 in /  0 mm
16:27 47.3 °F /  8.5 °C 19.6 °F /  -6.9 °C 30.32 in /  1026.6 hPa WNW 3.0 mph /  4.8 km/h 7.0 mph /  11.3 km/h 33 % 0.00 in /  0 mm
16:30 47.3 °F /  8.5 °C 19.6 °F /  -6.9 °C 30.32 in /  1026.6 hPa NNW 3.0 mph /  4.8 km/h 7.0 mph /  11.3 km/h 33 % 0.00 in /  0 mm
16:33 47.1 °F /  8.4 °C 20.1 °F /  -6.6 °C 30.32 in /  1026.6 hPa WNW 4.0 mph /  6.4 km/h 7.0 mph /  11.3 km/h 34 % 0.00 in /  0 mm
16:36 46.9 °F /  8.3 °C 19.9 °F /  -6.7 °C 30.32 in /  1026.6 hPa NNW 1.0 mph /  1.6 km/h 5.0 mph /  8 km/h 34 % 0.00 in /  0 mm
16:41 46.9 °F /  8.3 °C 19.9 °F /  -6.7 °C 30.32 in /  1026.6 hPa NW 1.0 mph /  1.6 km/h 4.0 mph /  6.4 km/h 34 % 0.00 in /  0 mm
16:44 46.9 °F /  8.3 °C 19.9 °F /  -6.7 °C 30.32 in /  1026.6 hPa NW 1.0 mph /  1.6 km/h 4.0 mph /  6.4 km/h 34 % 0.00 in /  0 mm
16:49 46.6 °F /  8.1 °C 19.8 °F /  -6.8 °C 30.32 in /  1026.6 hPa WNW 2.0 mph /  3.2 km/h 5.0 mph /  8 km/h 34 % 0.00 in /  0 mm
16:52 46.4 °F /  8 °C 19.6 °F /  -6.9 °C 30.32 in /  1026.6 hPa North 4.0 mph /  6.4 km/h 5.0 mph /  8 km/h 34 % 0.00 in /  0 mm
16:56 46.2 °F /  7.9 °C 20.1 °F /  -6.6 °C 30.32 in /  1026.6 hPa West 2.0 mph /  3.2 km/h 6.0 mph /  9.7 km/h 35 % 0.00 in /  0 mm
17:01 46.0 °F /  7.8 °C 19.9 °F /  -6.7 °C 30.32 in /  1026.6 hPa Calm   6.0 mph /  9.7 km/h 35 % 0.00 in /  0 mm
17:02 46.0 °F /  7.8 °C 19.9 °F /  -6.7 °C 30.32 in /  1026.6 hPa NW 1.0 mph /  1.6 km/h 6.0 mph /  9.7 km/h 35 % 0.00 in /  0 mm
17:04 46.0 °F /  7.8 °C 20.5 °F /  -6.4 °C 30.32 in /  1026.6 hPa North 2.0 mph /  3.2 km/h 6.0 mph /  9.7 km/h 36 % 0.00 in /  0 mm
17:08 45.9 °F /  7.7 °C 20.5 °F /  -6.4 °C 30.32 in /  1026.6 hPa Calm   6.0 mph /  9.7 km/h 36 % 0.00 in /  0 mm
17:13 45.7 °F /  7.6 °C 20.3 °F /  -6.5 °C 30.32 in /  1026.6 hPa Calm   5.0 mph /  8 km/h 36 % 0.00 in /  0 mm
17:18 45.3 °F /  7.4 °C 20.7 °F /  -6.3 °C 30.33 in /  1027 hPa Calm   5.0 mph /  8 km/h 37 % 0.00 in /  0 mm
17:23 45.0 °F /  7.2 °C 20.8 °F /  -6.2 °C 30.33 in /  1027 hPa Calm   5.0 mph /  8 km/h 38 % 0.00 in /  0 mm
17:26 45.0 °F /  7.2 °C 20.8 °F /  -6.2 °C 30.33 in /  1027 hPa NNW 1.0 mph /  1.6 km/h 3.0 mph /  4.8 km/h 38 % 0.00 in /  0 mm
17:29 44.8 °F /  7.1 °C 20.7 °F /  -6.3 °C 30.33 in /  1027 hPa NW 1.0 mph /  1.6 km/h 3.0 mph /  4.8 km/h 38 % 0.00 in /  0 mm
17:34 44.4 °F /  6.9 °C 20.5 °F /  -6.4 °C 30.33 in /  1027 hPa Calm   3.0 mph /  4.8 km/h 38 % 0.00 in /  0 mm
17:35 44.4 °F /  6.9 °C 20.5 °F /  -6.4 °C 30.33 in /  1027 hPa Calm   3.0 mph /  4.8 km/h 38 % 0.00 in /  0 mm
17:40 44.2 °F /  6.8 °C 20.3 °F /  -6.5 °C 30.33 in /  1027 hPa Calm   3.0 mph /  4.8 km/h 38 % 0.00 in /  0 mm
17:45 43.9 °F /  6.6 °C 20.5 °F /  -6.4 °C 30.33 in /  1027 hPa Calm   2.0 mph /  3.2 km/h 39 % 0.00 in /  0 mm
17:51 43.2 °F /  6.2 °C 20.5 °F /  -6.4 °C 30.33 in /  1027 hPa Calm   2.0 mph /  3.2 km/h 40 % 0.00 in /  0 mm
17:52 43.2 °F /  6.2 °C 20.5 °F /  -6.4 °C 30.33 in /  1027 hPa Calm   2.0 mph /  3.2 km/h 40 % 0.00 in /  0 mm
17:53 43.2 °F /  6.2 °C 20.5 °F /  -6.4 °C 30.33 in /  1027 hPa Calm   2.0 mph /  3.2 km/h 40 % 0.00 in /  0 mm
17:57 42.4 °F /  5.8 °C 20.5 °F /  -6.4 °C 30.33 in /  1027 hPa Calm   1.0 mph /  1.6 km/h 41 % 0.00 in /  0 mm
17:59 42.1 °F /  5.6 °C 20.1 °F /  -6.6 °C 30.33 in /  1027 hPa Calm   1.0 mph /  1.6 km/h 41 % 0.00 in /  0 mm
18:04 41.2 °F /  5.1 °C 20.3 °F /  -6.5 °C 30.33 in /  1027 hPa Calm     43 % 0.00 in /  0 mm
18:06 40.8 °F /  4.9 °C 21.2 °F /  -6 °C 30.33 in /  1027 hPa Calm     45 % 0.00 in /  0 mm
18:12 40.3 °F /  4.6 °C 21.7 °F /  -5.7 °C 30.33 in /  1027 hPa Calm     47 % 0.00 in /  0 mm
18:14 39.9 °F /  4.4 °C 21.4 °F /  -5.9 °C 30.33 in /  1027 hPa Calm     47 % 0.00 in /  0 mm
18:19 39.0 °F /  3.9 °C 20.5 °F /  -6.4 °C 30.33 in /  1027 hPa Calm     47 % 0.00 in /  0 mm
18:20 38.8 °F /  3.8 °C 20.3 °F /  -6.5 °C 30.33 in /  1027 hPa Calm     47 % 0.00 in /  0 mm
18:22 38.7 °F /  3.7 °C 20.7 °F /  -6.3 °C 30.33 in /  1027 hPa Calm     48 % 0.00 in /  0 mm
18:26 37.9 °F /  3.3 °C 21.4 °F /  -5.9 °C 30.33 in /  1027 hPa Calm     51 % 0.00 in /  0 mm
18:31 37.6 °F /  3.1 °C 21.9 °F /  -5.6 °C 30.33 in /  1027 hPa Calm     53 % 0.00 in /  0 mm
18:36 37.2 °F /  2.9 °C 22.1 °F /  -5.5 °C 30.33 in /  1027 hPa Calm     54 % 0.00 in /  0 mm
18:38 37.0 °F /  2.8 °C 21.9 °F /  -5.6 °C 30.33 in /  1027 hPa Calm     54 % 0.00 in /  0 mm
18:42 36.7 °F /  2.6 °C 21.6 °F /  -5.8 °C 30.33 in /  1027 hPa Calm     54 % 0.00 in /  0 mm
18:44 36.3 °F /  2.4 °C 21.7 °F /  -5.7 °C 30.34 in /  1027.3 hPa Calm     55 % 0.00 in /  0 mm
18:47 36.0 °F /  2.2 °C 21.4 °F /  -5.9 °C 30.34 in /  1027.3 hPa Calm     55 % 0.00 in /  0 mm
18:52 35.8 °F /  2.1 °C 23.2 °F /  -4.9 °C 30.33 in /  1027 hPa Calm     60 % 0.00 in /  0 mm
18:53 35.8 °F /  2.1 °C 23.2 °F /  -4.9 °C 30.34 in /  1027.3 hPa Calm     60 % 0.00 in /  0 mm
18:58 36.1 °F /  2.3 °C 23.2 °F /  -4.9 °C 30.34 in /  1027.3 hPa Calm     59 % 0.00 in /  0 mm
18:59 36.1 °F /  2.3 °C 23.5 °F /  -4.7 °C 30.34 in /  1027.3 hPa Calm     60 % 0.00 in /  0 mm
19:04 36.0 °F /  2.2 °C 23.4 °F /  -4.8 °C 30.34 in /  1027.3 hPa Calm     60 % 0.00 in /  0 mm
19:05 35.8 °F /  2.1 °C 23.2 °F /  -4.9 °C 30.34 in /  1027.3 hPa Calm     60 % 0.00 in /  0 mm
19:10 35.2 °F /  1.8 °C 23.2 °F /  -4.9 °C 30.34 in /  1027.3 hPa Calm     61 % 0.00 in /  0 mm
19:14 35.1 °F /  1.7 °C 23.7 °F /  -4.6 °C 30.34 in /  1027.3 hPa Calm     63 % 0.00 in /  0 mm
19:16 35.1 °F /  1.7 °C 23.7 °F /  -4.6 °C 30.34 in /  1027.3 hPa Calm     63 % 0.00 in /  0 mm
19:21 34.9 °F /  1.6 °C 23.9 °F /  -4.5 °C 30.34 in /  1027.3 hPa Calm     64 % 0.00 in /  0 mm
19:22 34.9 °F /  1.6 °C 23.9 °F /  -4.5 °C 30.34 in /  1027.3 hPa Calm     64 % 0.00 in /  0 mm
19:27 34.5 °F /  1.4 °C 24.3 °F /  -4.3 °C 30.34 in /  1027.3 hPa Calm     66 % 0.00 in /  0 mm
19:31 34.3 °F /  1.3 °C 23.7 °F /  -4.6 °C 30.34 in /  1027.3 hPa Calm     65 % 0.00 in /  0 mm
19:32 34.3 °F /  1.3 °C 23.7 °F /  -4.6 °C 30.34 in /  1027.3 hPa Calm     65 % 0.00 in /  0 mm
19:37 34.2 °F /  1.2 °C 24.1 °F /  -4.4 °C 30.34 in /  1027.3 hPa Calm     66 % 0.00 in /  0 mm
19:38 34.2 °F /  1.2 °C 24.1 °F /  -4.4 °C 30.34 in /  1027.3 hPa Calm     66 % 0.00 in /  0 mm
19:39 34.0 °F /  1.1 °C 23.9 °F /  -4.5 °C 30.34 in /  1027.3 hPa Calm     66 % 0.00 in /  0 mm
19:44 34.0 °F /  1.1 °C 23.9 °F /  -4.5 °C 30.34 in /  1027.3 hPa Calm     66 % 0.00 in /  0 mm
19:45 33.8 °F /  1 °C 23.4 °F /  -4.8 °C 30.34 in /  1027.3 hPa Calm     65 % 0.00 in /  0 mm
19:50 33.4 °F /  0.8 °C 23.4 °F /  -4.8 °C 30.35 in /  1027.7 hPa Calm     66 % 0.00 in /  0 mm
19:51 33.4 °F /  0.8 °C 23.4 °F /  -4.8 °C 30.35 in /  1027.7 hPa Calm     66 % 0.00 in /  0 mm
19:56 32.9 °F /  0.5 °C 22.8 °F /  -5.1 °C 30.35 in /  1027.7 hPa Calm     66 % 0.00 in /  0 mm
20:01 32.4 °F /  0.2 °C 22.6 °F /  -5.2 °C 30.35 in /  1027.7 hPa Calm     67 % 0.00 in /  0 mm
20:06 32.4 °F /  0.2 °C 23.7 °F /  -4.6 °C 30.35 in /  1027.7 hPa Calm     70 % 0.00 in /  0 mm
20:10 32.7 °F /  0.4 °C 24.4 °F /  -4.2 °C 30.35 in /  1027.7 hPa Calm     71 % 0.00 in /  0 mm
20:11 32.9 °F /  0.5 °C 24.6 °F /  -4.1 °C 30.35 in /  1027.7 hPa Calm     71 % 0.00 in /  0 mm
20:16 33.1 °F /  0.6 °C 24.6 °F /  -4.1 °C 30.35 in /  1027.7 hPa Calm     71 % 0.00 in /  0 mm
20:17 33.1 °F /  0.6 °C 24.6 °F /  -4.1 °C 30.35 in /  1027.7 hPa Calm     71 % 0.00 in /  0 mm
20:22 32.7 °F /  0.4 °C 24.4 °F /  -4.2 °C 30.35 in /  1027.7 hPa Calm     71 % 0.00 in /  0 mm
20:27 32.5 °F /  0.3 °C 24.4 °F /  -4.2 °C 30.35 in /  1027.7 hPa Calm     72 % 0.00 in /  0 mm
20:28 32.5 °F /  0.3 °C 24.4 °F /  -4.2 °C 30.35 in /  1027.7 hPa Calm     72 % 0.00 in /  0 mm
20:33 32.7 °F /  0.4 °C 25.0 °F /  -3.9 °C 30.35 in /  1027.7 hPa Calm     73 % 0.00 in /  0 mm
20:38 32.5 °F /  0.3 °C 24.4 °F /  -4.2 °C 30.35 in /  1027.7 hPa Calm     72 % 0.00 in /  0 mm
20:39 32.5 °F /  0.3 °C 24.4 °F /  -4.2 °C 30.35 in /  1027.7 hPa Calm     72 % 0.00 in /  0 mm
20:44 32.5 °F /  0.3 °C 24.8 °F /  -4 °C 30.35 in /  1027.7 hPa Calm     73 % 0.00 in /  0 mm
20:46 32.5 °F /  0.3 °C 24.8 °F /  -4 °C 30.35 in /  1027.7 hPa Calm     73 % 0.00 in /  0 mm
20:50 32.4 °F /  0.2 °C 24.6 °F /  -4.1 °C 30.35 in /  1027.7 hPa Calm     73 % 0.00 in /  0 mm
20:55 32.2 °F /  0.1 °C 24.4 °F /  -4.2 °C 30.35 in /  1027.7 hPa Calm     73 % 0.00 in /  0 mm
21:00 31.8 °F /  -0.1 °C 24.4 °F /  -4.2 °C 30.35 in /  1027.7 hPa Calm     74 % 0.00 in /  0 mm
21:01 31.8 °F /  -0.1 °C 24.4 °F /  -4.2 °C 30.35 in /  1027.7 hPa Calm     74 % 0.00 in /  0 mm
21:06 31.5 °F /  -0.3 °C 23.9 °F /  -4.5 °C 30.35 in /  1027.7 hPa Calm     73 % 0.00 in /  0 mm
21:07 31.3 °F /  -0.4 °C 23.9 °F /  -4.5 °C 30.35 in /  1027.7 hPa Calm     74 % 0.00 in /  0 mm
21:12 30.9 °F /  -0.6 °C 24.3 °F /  -4.3 °C 30.35 in /  1027.7 hPa Calm     76 % 0.00 in /  0 mm
21:17 30.6 °F /  -0.8 °C 23.9 °F /  -4.5 °C 30.35 in /  1027.7 hPa Calm     76 % 0.00 in /  0 mm
21:19 30.6 °F /  -0.8 °C 23.9 °F /  -4.5 °C 30.35 in /  1027.7 hPa Calm     76 % 0.00 in /  0 mm
21:24 30.4 °F /  -0.9 °C 24.3 °F /  -4.3 °C 30.35 in /  1027.7 hPa Calm     78 % 0.00 in /  0 mm
21:29 30.2 °F /  -1 °C 24.3 °F /  -4.3 °C 30.35 in /  1027.7 hPa Calm     78 % 0.00 in /  0 mm
21:31 30.2 °F /  -1 °C 24.4 °F /  -4.2 °C 30.35 in /  1027.7 hPa Calm     79 % 0.00 in /  0 mm
21:35 30.0 °F /  -1.1 °C 24.1 °F /  -4.4 °C 30.35 in /  1027.7 hPa Calm     78 % 0.00 in /  0 mm
21:40 29.8 °F /  -1.2 °C 24.1 °F /  -4.4 °C 30.35 in /  1027.7 hPa Calm     79 % 0.00 in /  0 mm
21:45 29.8 °F /  -1.2 °C 24.4 °F /  -4.2 °C 30.35 in /  1027.7 hPa Calm     80 % 0.00 in /  0 mm
21:46 29.8 °F /  -1.2 °C 24.4 °F /  -4.2 °C 30.35 in /  1027.7 hPa Calm     80 % 0.00 in /  0 mm
21:48 29.7 °F /  -1.3 °C 23.9 °F /  -4.5 °C 30.35 in /  1027.7 hPa Calm     79 % 0.00 in /  0 mm
21:51 29.8 °F /  -1.2 °C 24.4 °F /  -4.2 °C 30.35 in /  1027.7 hPa Calm     80 % 0.00 in /  0 mm
21:55 30.0 °F /  -1.1 °C 25.2 °F /  -3.8 °C 30.35 in /  1027.7 hPa Calm     82 % 0.00 in /  0 mm
21:56 30.4 °F /  -0.9 °C 25.5 °F /  -3.6 °C 30.35 in /  1027.7 hPa Calm     82 % 0.00 in /  0 mm
22:01 30.6 °F /  -0.8 °C 25.7 °F /  -3.5 °C 30.35 in /  1027.7 hPa Calm     82 % 0.00 in /  0 mm
22:03 30.6 °F /  -0.8 °C 25.7 °F /  -3.5 °C 30.35 in /  1027.7 hPa Calm     82 % 0.00 in /  0 mm
22:12 30.6 °F /  -0.8 °C 25.3 °F /  -3.7 °C 30.36 in /  1028 hPa Calm     81 % 0.00 in /  0 mm
22:13 30.6 °F /  -0.8 °C 25.3 °F /  -3.7 °C 30.36 in /  1028 hPa Calm     81 % 0.00 in /  0 mm
22:14 30.4 °F /  -0.9 °C 25.3 °F /  -3.7 °C 30.36 in /  1028 hPa Calm     81 % 0.00 in /  0 mm
22:15 30.4 °F /  -0.9 °C 25.3 °F /  -3.7 °C 30.36 in /  1028 hPa Calm     81 % 0.00 in /  0 mm
22:16 30.4 °F /  -0.9 °C 25.3 °F /  -3.7 °C 30.36 in /  1028 hPa Calm     81 % 0.00 in /  0 mm
22:17 30.2 °F /  -1 °C 25.2 °F /  -3.8 °C 30.36 in /  1028 hPa Calm     81 % 0.00 in /  0 mm
22:21 30.0 °F /  -1.1 °C 25.2 °F /  -3.8 °C 30.36 in /  1028 hPa Calm     82 % 0.00 in /  0 mm
22:22 30.0 °F /  -1.1 °C 25.2 °F /  -3.8 °C 30.36 in /  1028 hPa Calm     82 % 0.00 in /  0 mm
22:27 29.8 °F /  -1.2 °C 25.3 °F /  -3.7 °C 30.36 in /  1028 hPa Calm     83 % 0.00 in /  0 mm
22:30 29.7 °F /  -1.3 °C 24.8 °F /  -4 °C 30.36 in /  1028 hPa Calm     82 % 0.00 in /  0 mm
22:32 29.5 °F /  -1.4 °C 24.6 °F /  -4.1 °C 30.36 in /  1028 hPa Calm     82 % 0.00 in /  0 mm
22:37 29.1 °F /  -1.6 °C 25.0 °F /  -3.9 °C 30.36 in /  1028 hPa Calm     84 % 0.00 in /  0 mm
22:42 28.9 °F /  -1.7 °C 24.4 °F /  -4.2 °C 30.36 in /  1028 hPa Calm     83 % 0.00 in /  0 mm
22:44 28.8 °F /  -1.8 °C 24.3 °F /  -4.3 °C 30.36 in /  1028 hPa Calm     83 % 0.00 in /  0 mm
22:45 28.6 °F /  -1.9 °C 24.1 °F /  -4.4 °C 30.36 in /  1028 hPa Calm     83 % 0.00 in /  0 mm
22:46 28.6 °F /  -1.9 °C 24.1 °F /  -4.4 °C 30.36 in /  1028 hPa Calm     83 % 0.00 in /  0 mm
22:50 28.4 °F /  -2 °C 24.3 °F /  -4.3 °C 30.36 in /  1028 hPa Calm     84 % 0.00 in /  0 mm
22:55 28.8 °F /  -1.8 °C 24.8 °F /  -4 °C 30.36 in /  1028 hPa Calm     85 % 0.00 in /  0 mm
22:56 28.8 °F /  -1.8 °C 24.8 °F /  -4 °C 30.36 in /  1028 hPa Calm     85 % 0.00 in /  0 mm
22:57 28.8 °F /  -1.8 °C 25.2 °F /  -3.8 °C 30.36 in /  1028 hPa Calm     86 % 0.00 in /  0 mm
23:02 28.8 °F /  -1.8 °C 25.2 °F /  -3.8 °C 30.36 in /  1028 hPa Calm     86 % 0.00 in /  0 mm
23:07 28.6 °F /  -1.9 °C 24.6 °F /  -4.1 °C 30.36 in /  1028 hPa Calm     85 % 0.00 in /  0 mm
23:10 28.4 °F /  -2 °C 24.4 °F /  -4.2 °C 30.36 in /  1028 hPa Calm     85 % 0.00 in /  0 mm
23:15 28.2 °F /  -2.1 °C 24.6 °F /  -4.1 °C 30.36 in /  1028 hPa Calm     86 % 0.00 in /  0 mm
23:16 28.4 °F /  -2 °C 24.8 °F /  -4 °C 30.36 in /  1028 hPa Calm     86 % 0.00 in /  0 mm
23:21 28.6 °F /  -1.9 °C 25.0 °F /  -3.9 °C 30.36 in /  1028 hPa Calm     86 % 0.00 in /  0 mm
23:25 28.6 °F /  -1.9 °C 25.2 °F /  -3.8 °C 30.36 in /  1028 hPa Calm     87 % 0.00 in /  0 mm
23:30 28.6 °F /  -1.9 °C 25.2 °F /  -3.8 °C 30.36 in /  1028 hPa Calm     87 % 0.00 in /  0 mm
23:32 28.6 °F /  -1.9 °C 25.0 °F /  -3.9 °C 30.36 in /  1028 hPa Calm     86 % 0.00 in /  0 mm
23:34 28.6 °F /  -1.9 °C 25.0 °F /  -3.9 °C 30.36 in /  1028 hPa Calm     86 % 0.00 in /  0 mm
23:37 28.4 °F /  -2 °C 25.0 °F /  -3.9 °C 30.36 in /  1028 hPa Calm     87 % 0.00 in /  0 mm
23:39 28.2 °F /  -2.1 °C 24.6 °F /  -4.1 °C 30.36 in /  1028 hPa Calm     86 % 0.00 in /  0 mm
23:44 28.2 °F /  -2.1 °C 24.6 °F /  -4.1 °C 30.36 in /  1028 hPa Calm     86 % 0.00 in /  0 mm
23:46 28.2 °F /  -2.1 °C 24.8 °F /  -4 °C 30.35 in /  1027.7 hPa Calm     87 % 0.00 in /  0 mm
23:49 28.2 °F /  -2.1 °C 24.8 °F /  -4 °C 30.36 in /  1028 hPa Calm     87 % 0.00 in /  0 mm
23:54 28.2 °F /  -2.1 °C 24.8 °F /  -4 °C 30.36 in /  1028 hPa Calm     87 % 0.00 in /  0 mm
23:55 28.2 °F /  -2.1 °C 24.8 °F /  -4 °C 30.36 in /  1028 hPa Calm     87 % 0.00 in /  0 mm
23:59 28.2 °F /  -2.1 °C 24.8 °F /  -4 °C 30.36 in /  1028 hPa Calm     87 % 0.00 in /  0 mm
Spring, Texas: Villages of Bridgestone
Compliments of Weather Underground - 3.75 mb

Script developed by  Jim McMurry - jmcmurry@mwt.net Adapted for the template by  Wim van der Kuil - Leuven-Template.eu

You find our weather info also at:

UK Metoffice

WeatherCloud

Weather Underground

Mid-South Weather Network

AWEKAS

Citizen Weather Observer Program (CWOP)

HAMweather, WeatherForYou, PWS Weather

Equipment we use:

Weather-station
Davis Vantage Vue

Weather-program
Meteohub

Weather-server
Debian 7.9 x86 (Guest)

Provider
DreamHost

Davis Vantage Vue

Meteohub

Debian 7.9 x86 (Guest)

DreamHost